createdAt,value
2022-08-25T00:00:16.838Z,101622.55
2022-08-25T00:02:54.111Z,101612.29
2022-08-25T00:05:27.690Z,101614.18
2022-08-25T00:07:57.290Z,101609.70
2022-08-25T00:10:25.079Z,101609.48
2022-08-25T00:12:52.774Z,101612.65
2022-08-25T00:15:20.559Z,101619.80
2022-08-25T00:17:48.251Z,101618.50
2022-08-25T00:20:16.498Z,101623.80
2022-08-25T00:22:44.156Z,101621.15
2022-08-25T00:25:13.711Z,101621.45
2022-08-25T00:27:41.413Z,101619.09
2022-08-25T00:30:10.131Z,101614.34
2022-08-25T00:32:40.908Z,101613.82
2022-08-25T00:35:08.835Z,101612.29
2022-08-25T00:37:39.264Z,101615.72
2022-08-25T00:40:07.716Z,101620.98
2022-08-25T00:42:35.464Z,101614.45
2022-08-25T00:45:03.159Z,101618.37
2022-08-25T00:47:32.184Z,101611.27
2022-08-25T00:50:02.608Z,101610.78
2022-08-25T00:52:45.031Z,101615.52
2022-08-25T00:55:17.132Z,101614.77
2022-08-25T00:57:49.383Z,101618.43
2022-08-25T01:00:27.547Z,101613.46
2022-08-25T01:02:57.822Z,101616.63
2022-08-25T01:05:27.102Z,101624.26
2022-08-25T01:07:58.719Z,101619.77
2022-08-25T01:10:28.294Z,101626.34
2022-08-25T01:13:02.415Z,101620.04
2022-08-25T01:15:31.368Z,101621.64
2022-08-25T01:18:00.145Z,101630.34
2022-08-25T01:20:31.884Z,101616.60
2022-08-25T01:23:00.790Z,101622.42
2022-08-25T01:25:51.467Z,101622.95
2022-08-25T01:28:20.728Z,101628.47
2022-08-25T01:30:48.591Z,101626.09
2022-08-25T01:33:18.335Z,101625.04
2022-08-25T01:35:46.648Z,101612.94
2022-08-25T01:38:14.836Z,101618.47
2022-08-25T01:40:43.864Z,101621.60
2022-08-25T01:43:12.488Z,101624.26
2022-08-25T01:45:43.697Z,101620.82
2022-08-25T01:48:12.766Z,101619.77
2022-08-25T01:50:41.007Z,101620.04
2022-08-25T01:53:10.423Z,101624.26
2022-08-25T01:55:52.726Z,101616.60
2022-08-25T01:58:23.221Z,101621.09
2022-08-25T02:00:52.541Z,101624.26
2022-08-25T02:03:20.941Z,101622.65
2022-08-25T02:05:49.202Z,101620.30
2022-08-25T02:08:16.941Z,101625.01
2022-08-25T02:10:45.214Z,101610.29
2022-08-25T02:13:13.884Z,101611.60
2022-08-25T02:15:45.735Z,101601.33
2022-08-25T02:18:14.364Z,101599.50
2022-08-25T02:20:42.762Z,101596.59
2022-08-25T02:23:11.371Z,101604.99
2022-08-25T02:25:41.037Z,101605.55
2022-08-25T02:28:10.350Z,101606.04
2022-08-25T02:30:39.673Z,101611.08
2022-08-25T02:33:07.600Z,101604.21
2022-08-25T02:35:35.491Z,101603.66
2022-08-25T02:38:03.339Z,101606.30
2022-08-25T02:40:31.511Z,101611.01
2022-08-25T02:42:59.250Z,101612.32
2022-08-25T02:45:26.947Z,101613.10
2022-08-25T02:47:54.995Z,101615.72
2022-08-25T02:50:22.742Z,101622.00
2022-08-25T02:52:51.816Z,101616.99
2022-08-25T02:55:20.263Z,101615.42
2022-08-25T02:57:49.248Z,101612.52
2022-08-25T03:00:17.867Z,101610.16
2022-08-25T03:02:47.717Z,101605.95
2022-08-25T03:05:16.841Z,101614.34
2022-08-25T03:07:44.724Z,101609.84
2022-08-25T03:10:16.425Z,101611.47
2022-08-25T03:12:44.146Z,101608.03
2022-08-25T03:15:13.561Z,101610.65
2022-08-25T03:17:41.505Z,101607.48
2022-08-25T03:20:13.260Z,101608.79
2022-08-25T03:22:41.138Z,101603.26
2022-08-25T03:25:27.822Z,101610.09
2022-08-25T03:27:55.651Z,101602.73
2022-08-25T03:30:23.326Z,101597.73
2022-08-25T03:32:51.382Z,101596.95
2022-08-25T03:35:19.431Z,101597.73
2022-08-25T03:37:47.056Z,101601.13
2022-08-25T03:40:18.625Z,101586.39
2022-08-25T03:42:47.423Z,101598.52
2022-08-25T03:45:17.732Z,101596.13
2022-08-25T03:47:49.606Z,101606.89
2022-08-25T03:50:19.370Z,101605.84
2022-08-25T03:52:51.435Z,101611.63
2022-08-25T03:55:19.239Z,101613.98
2022-08-25T03:57:46.888Z,101620.82
2022-08-25T04:00:15.194Z,101617.68
2022-08-25T04:02:43.503Z,101622.62
2022-08-25T04:05:11.386Z,101619.45
2022-08-25T04:07:39.616Z,101618.63
2022-08-25T04:10:09.500Z,101615.46
2022-08-25T04:12:38.591Z,101628.05
2022-08-25T04:15:07.793Z,101629.09
2022-08-25T04:17:38.151Z,101630.40
2022-08-25T04:20:08.009Z,101622.75
2022-08-25T04:22:36.803Z,101625.63
2022-08-25T04:25:06.669Z,101631.94
2022-08-25T04:27:34.869Z,101633.77
2022-08-25T04:30:02.749Z,101633.25
2022-08-25T04:32:30.396Z,101633.25
2022-08-25T04:34:58.091Z,101633.54
2022-08-25T04:37:25.778Z,101631.41
2022-08-25T04:39:53.579Z,101632.73
2022-08-25T04:42:21.485Z,101628.02
2022-08-25T04:44:49.828Z,101638.77
2022-08-25T04:47:17.517Z,101628.54
2022-08-25T04:49:45.226Z,101632.23
2022-08-25T04:52:14.348Z,101628.24
2022-08-25T04:54:42.694Z,101635.38
2022-08-25T04:57:10.674Z,101632.23
2022-08-25T04:59:38.477Z,101621.67
2022-08-25T05:02:07.783Z,101622.75
2022-08-25T05:04:37.564Z,101625.40
2022-08-25T05:07:06.181Z,101626.70
2022-08-25T05:09:34.504Z,101618.04
2022-08-25T05:12:03.843Z,101616.73
2022-08-25T05:14:33.375Z,101617.52
2022-08-25T05:17:01.442Z,101611.20
2022-08-25T05:19:29.197Z,101618.56
2022-08-25T05:21:58.049Z,101622.52
2022-08-25T05:24:26.860Z,101618.11
2022-08-25T05:26:54.893Z,101617.06
2022-08-25T05:29:22.771Z,101612.84
2022-08-25T05:31:51.194Z,101615.00
2022-08-25T05:34:20.495Z,101613.95
2022-08-25T05:36:49.185Z,101612.38
2022-08-25T05:39:16.977Z,101618.20
2022-08-25T05:41:45.183Z,101608.76
2022-08-25T05:44:15.126Z,101599.30
2022-08-25T05:46:46.154Z,101602.80
2022-08-25T05:49:13.907Z,101613.56
2022-08-25T05:51:41.601Z,101609.12
2022-08-25T05:54:09.307Z,101611.77
2022-08-25T05:56:37.766Z,101617.59
2022-08-25T05:59:09.290Z,101613.10
2022-08-25T06:01:56.214Z,101616.02
2022-08-25T06:04:24.434Z,101617.35
2022-08-25T06:06:55.051Z,101611.57
2022-08-25T06:09:23.970Z,101614.48
2022-08-25T06:11:55.007Z,101610.00
2022-08-25T06:14:23.886Z,101612.91
2022-08-25T06:16:52.743Z,101613.98
2022-08-25T06:19:22.229Z,101612.41
2022-08-25T06:21:50.588Z,101618.73
2022-08-25T06:24:18.323Z,101615.30
2022-08-25T06:26:46.227Z,101617.39
2022-08-25T06:29:15.129Z,101619.22
2022-08-25T06:31:44.545Z,101608.95
2022-08-25T06:34:13.144Z,101604.50
2022-08-25T06:36:41.569Z,101606.86
2022-08-25T06:39:10.586Z,101611.11
2022-08-25T06:41:38.775Z,101596.36
2022-08-25T06:44:07.132Z,101593.98
2022-08-25T06:46:36.278Z,101597.67
2022-08-25T06:49:06.869Z,101593.41
2022-08-25T06:51:38.570Z,101590.77
2022-08-25T06:54:08.539Z,101592.08
2022-08-25T06:56:36.399Z,101599.44
2022-08-25T06:59:08.408Z,101598.65
2022-08-25T07:01:37.527Z,101599.40
2022-08-25T07:04:11.732Z,101589.92
2022-08-25T07:06:41.030Z,101585.93
2022-08-25T07:09:10.146Z,101585.08
2022-08-25T07:11:38.015Z,101582.66
2022-08-25T07:14:07.934Z,101581.88
2022-08-25T07:16:36.856Z,101578.08
2022-08-25T07:19:06.209Z,101579.09
2022-08-25T07:21:38.171Z,101580.89
2022-08-25T07:24:10.915Z,101578.15
2022-08-25T07:26:40.599Z,101575.17
2022-08-25T07:29:13.537Z,101572.49
2022-08-25T07:31:41.363Z,101574.48
2022-08-25T07:34:28.455Z,101578.64
2022-08-25T07:36:57.870Z,101568.86
2022-08-25T07:39:29.018Z,101567.52
2022-08-25T07:41:57.621Z,101567.48
2022-08-25T07:44:28.032Z,101572.69
2022-08-25T07:46:56.094Z,101577.69
2022-08-25T07:49:26.502Z,101575.76
2022-08-25T07:52:06.520Z,101578.60
2022-08-25T07:54:38.611Z,101575.07
2022-08-25T07:57:08.377Z,101572.66
2022-08-25T07:59:40.050Z,101571.51
2022-08-25T08:02:18.328Z,101560.26
2022-08-25T08:04:49.849Z,101555.19
2022-08-25T08:07:22.920Z,101556.14
2022-08-25T08:10:00.423Z,101554.73
2022-08-25T08:12:39.722Z,101563.92
2022-08-25T08:15:10.191Z,101574.71
2022-08-25T08:17:39.427Z,101584.98
2022-08-25T08:20:10.104Z,101579.39
2022-08-25T08:22:42.336Z,101572.23
2022-08-25T08:25:11.506Z,101573.50
2022-08-25T08:27:49.936Z,101584.82
2022-08-25T08:30:18.130Z,101584.20
2022-08-25T08:33:08.668Z,101586.26
2022-08-25T08:35:33.641Z,101588.55
2022-08-25T08:38:01.670Z,101578.15
2022-08-25T08:40:30.389Z,101582.30
2022-08-25T08:43:18.434Z,101583.58
2022-08-25T08:45:54.174Z,101581.91
2022-08-25T08:48:27.828Z,101582.82
2022-08-25T08:51:16.179Z,101576.12
2022-08-25T08:54:03.665Z,101575.23
2022-08-25T08:56:38.120Z,101577.30
2022-08-25T08:59:20.206Z,101588.64
2022-08-25T09:01:58.590Z,101583.87
2022-08-25T09:04:46.251Z,101574.55
2022-08-25T09:07:36.504Z,101571.87
2022-08-25T09:10:09.421Z,101579.95
2022-08-25T09:13:21.997Z,101574.35
2022-08-25T09:16:34.461Z,101573.80
2022-08-25T09:19:23.532Z,101578.73
2022-08-25T09:22:33.620Z,101579.98
2022-08-25T09:25:08.697Z,101583.61
2022-08-25T09:27:57.930Z,101585.60
2022-08-25T09:30:28.846Z,101576.55
2022-08-25T09:33:05.333Z,101583.61
2022-08-25T09:35:35.911Z,101581.61
2022-08-25T09:38:11.541Z,101579.13
2022-08-25T09:40:48.831Z,101575.11
2022-08-25T09:43:29.785Z,101569.28
2022-08-25T09:46:21.738Z,101579.03
2022-08-25T09:48:56.422Z,101580.05
2022-08-25T09:51:42.987Z,101572.09
2022-08-25T09:54:13.982Z,101577.69
2022-08-25T09:57:08.795Z,101582.30
2022-08-25T09:59:38.500Z,101574.23
2022-08-25T10:02:30.465Z,101569.65
2022-08-25T10:04:58.392Z,101560.23
2022-08-25T10:07:37.873Z,101559.31
2022-08-25T10:10:19.375Z,101562.13
2022-08-25T10:12:51.104Z,101556.92
2022-08-25T10:15:41.752Z,101552.31
2022-08-25T10:18:30.706Z,101545.02
2022-08-25T10:21:07.540Z,101544.11
2022-08-25T10:23:38.694Z,101532.10
2022-08-25T10:26:15.547Z,101535.87
2022-08-25T10:28:43.774Z,101526.97
2022-08-25T10:31:29.609Z,101530.77
2022-08-25T10:34:21.007Z,101526.94
2022-08-25T10:37:13.464Z,101519.98
2022-08-25T10:39:44.754Z,101525.70
2022-08-25T10:42:26.069Z,101521.84
2022-08-25T10:45:46.006Z,101519.35
2022-08-25T10:48:40.153Z,101519.02
2022-08-25T10:51:09.429Z,101527.20
2022-08-25T10:54:02.779Z,101511.47
2022-08-25T10:57:02.506Z,101510.52
2022-08-25T10:59:52.102Z,101508.27
2022-08-25T11:03:02.303Z,101498.75
2022-08-25T11:05:33.178Z,101496.27
2022-08-25T11:08:15.562Z,101493.75
2022-08-25T11:10:57.773Z,101497.87
2022-08-25T11:13:49.334Z,101494.96
2022-08-25T11:16:22.995Z,101484.82
2022-08-25T11:19:12.428Z,101478.41
2022-08-25T11:21:55.244Z,101478.41
2022-08-25T11:24:46.692Z,101475.14
2022-08-25T11:27:24.560Z,101471.05
2022-08-25T11:30:14.300Z,101483.16
2022-08-25T11:32:47.742Z,101468.77
2022-08-25T11:35:18.916Z,101469.02
2022-08-25T11:38:00.597Z,101468.86
2022-08-25T11:40:42.625Z,101464.61
2022-08-25T11:43:29.120Z,101463.70
2022-08-25T11:46:22.031Z,101462.72
2022-08-25T11:49:13.441Z,101459.45
2022-08-25T11:51:48.763Z,101450.68
2022-08-25T11:54:28.491Z,101458.53
2022-08-25T11:57:02.120Z,101448.78
2022-08-25T11:59:51.378Z,101450.78
2022-08-25T12:02:34.165Z,101452.35
2022-08-25T12:05:02.318Z,101453.95
2022-08-25T12:08:13.368Z,101454.77
2022-08-25T12:10:54.619Z,101448.36
2022-08-25T12:13:44.707Z,101441.92
2022-08-25T12:16:37.453Z,101445.65
2022-08-25T12:19:36.223Z,101437.86
2022-08-25T12:22:04.188Z,101438.62
2022-08-25T12:24:48.066Z,101434.73
2022-08-25T12:27:33.763Z,101440.41
2022-08-25T12:30:16.065Z,101436.69
2022-08-25T12:33:07.550Z,101436.49
2022-08-25T12:36:04.749Z,101430.84
2022-08-25T12:38:47.303Z,101437.08
2022-08-25T12:41:31.065Z,101427.50
2022-08-25T12:44:33.958Z,101432.17
2022-08-25T12:47:23.517Z,101425.93
2022-08-25T12:49:52.003Z,101422.04
2022-08-25T12:52:27.838Z,101420.50
2022-08-25T12:55:00.606Z,101421.09
2022-08-25T12:57:40.690Z,101416.58
2022-08-25T13:00:38.852Z,101414.41
2022-08-25T13:03:56.574Z,101417.36
2022-08-25T13:06:51.649Z,101414.41
2022-08-25T13:09:53.403Z,101411.67
2022-08-25T13:12:31.299Z,101405.23
2022-08-25T13:15:01.278Z,101411.90
2022-08-25T13:17:33.931Z,101407.59
2022-08-25T13:20:30.273Z,101405.42
2022-08-25T13:23:01.599Z,101404.84
2022-08-25T13:25:34.206Z,101403.46
2022-08-25T13:28:11.229Z,101399.54
2022-08-25T13:30:40.283Z,101394.27
2022-08-25T13:33:22.304Z,101387.44
2022-08-25T13:36:12.564Z,101391.13
2022-08-25T13:38:40.432Z,101392.12
2022-08-25T13:41:09.837Z,101387.24
2022-08-25T13:43:40.033Z,101385.87
2022-08-25T13:46:08.951Z,101385.87
2022-08-25T13:48:49.432Z,101381.55
2022-08-25T13:51:24.879Z,101377.86
2022-08-25T13:54:02.781Z,101381.75
2022-08-25T13:56:40.040Z,101381.16
2022-08-25T13:59:23.385Z,101370.20
2022-08-25T14:01:53.387Z,101363.77
2022-08-25T14:04:51.394Z,101373.54
2022-08-25T14:07:34.689Z,101361.97
2022-08-25T14:10:32.139Z,101368.02
2022-08-25T14:13:31.267Z,101363.93
2022-08-25T14:16:10.337Z,101364.12
2022-08-25T14:18:39.226Z,101353.95
2022-08-25T14:21:12.541Z,101359.19
2022-08-25T14:23:40.759Z,101349.05
2022-08-25T14:26:08.610Z,101354.31
2022-08-25T14:28:36.415Z,101354.31
2022-08-25T14:31:14.999Z,101346.11
2022-08-25T14:33:58.259Z,101351.17
2022-08-25T14:36:27.428Z,101351.99
2022-08-25T14:38:57.571Z,101348.43
2022-08-25T14:41:27.668Z,101342.97
2022-08-25T14:43:55.542Z,101343.59
2022-08-25T14:46:30.828Z,101347.28
2022-08-25T14:49:09.326Z,101339.08
2022-08-25T14:51:40.982Z,101335.55
2022-08-25T14:54:12.744Z,101332.80
2022-08-25T14:56:43.112Z,101328.52
2022-08-25T14:59:11.119Z,101338.26
2022-08-25T15:01:39.128Z,101336.13
2022-08-25T15:04:11.804Z,101335.55
2022-08-25T15:06:40.768Z,101329.07
2022-08-25T15:09:17.450Z,101328.48
2022-08-25T15:11:52.804Z,101322.98
2022-08-25T15:14:28.628Z,101323.15
2022-08-25T15:17:00.673Z,101323.34
2022-08-25T15:19:29.562Z,101313.18
2022-08-25T15:21:59.264Z,101322.17
2022-08-25T15:24:29.154Z,101320.41
2022-08-25T15:27:03.007Z,101314.13
2022-08-25T15:29:35.895Z,101315.27
2022-08-25T15:32:08.188Z,101311.54
2022-08-25T15:34:36.942Z,101309.35
2022-08-25T15:37:13.013Z,101303.86
2022-08-25T15:39:42.700Z,101311.67
2022-08-25T15:42:17.642Z,101306.31
2022-08-25T15:44:53.065Z,101303.34
2022-08-25T15:47:22.637Z,101303.79
2022-08-25T15:49:50.318Z,101301.77
2022-08-25T15:52:18.552Z,101295.09
2022-08-25T15:54:47.410Z,101294.60
2022-08-25T15:57:18.048Z,101292.55
2022-08-25T15:59:53.537Z,101292.45
2022-08-25T16:02:22.177Z,101292.41
2022-08-25T16:04:49.900Z,101281.75
2022-08-25T16:07:17.610Z,101281.13
2022-08-25T16:09:45.349Z,101276.98
2022-08-25T16:12:13.730Z,101280.28
2022-08-25T16:14:41.681Z,101285.12
2022-08-25T16:17:09.387Z,101276.65
2022-08-25T16:19:38.222Z,101274.10
2022-08-25T16:22:08.914Z,101279.37
2022-08-25T16:24:45.444Z,101270.73
2022-08-25T16:27:15.224Z,101278.74
2022-08-25T16:29:45.079Z,101269.91
2022-08-25T16:32:15.475Z,101272.70
2022-08-25T16:34:44.686Z,101277.63
2022-08-25T16:37:12.491Z,101275.31
2022-08-25T16:39:45.250Z,101269.82
2022-08-25T16:42:13.737Z,101269.66
2022-08-25T16:44:41.591Z,101261.28
2022-08-25T16:47:09.347Z,101259.35
2022-08-25T16:49:37.962Z,101264.09
2022-08-25T16:52:28.514Z,101257.55
2022-08-25T16:55:15.932Z,101257.81
2022-08-25T16:57:55.355Z,101259.45
2022-08-25T17:00:26.159Z,101255.98
2022-08-25T17:03:00.446Z,101258.21
2022-08-25T17:05:30.258Z,101253.96
2022-08-25T17:08:19.636Z,101251.24
2022-08-25T17:10:47.413Z,101249.94
2022-08-25T17:13:15.318Z,101245.52
2022-08-25T17:15:45.285Z,101244.18
2022-08-25T17:18:14.787Z,101247.98
2022-08-25T17:20:45.760Z,101238.62
2022-08-25T17:23:13.960Z,101239.44
2022-08-25T17:25:43.739Z,101243.82
2022-08-25T17:28:12.869Z,101245.26
2022-08-25T17:30:41.357Z,101246.63
2022-08-25T17:33:09.557Z,101246.50
2022-08-25T17:35:45.442Z,101246.96
2022-08-25T17:38:14.639Z,101244.09
2022-08-25T17:40:42.746Z,101248.40
2022-08-25T17:43:11.697Z,101255.85
2022-08-25T17:45:40.971Z,101260.98
2022-08-25T17:48:10.152Z,101266.12
2022-08-25T17:50:40.144Z,101273.58
2022-08-25T17:53:10.054Z,101271.23
2022-08-25T17:55:38.980Z,101271.19
2022-08-25T17:58:11.769Z,101267.53
2022-08-25T18:00:42.979Z,101267.53
2022-08-25T18:03:11.853Z,101272.04
2022-08-25T18:05:40.031Z,101269.91
2022-08-25T18:08:10.512Z,101277.93
2022-08-25T18:10:39.357Z,101282.60
2022-08-25T18:13:07.541Z,101282.80
2022-08-25T18:15:35.773Z,101279.86
2022-08-25T18:18:04.531Z,101284.30
2022-08-25T18:20:32.774Z,101285.88
2022-08-25T18:23:00.683Z,101288.23
2022-08-25T18:25:29.132Z,101286.85
2022-08-25T18:27:58.198Z,101291.30
2022-08-25T18:30:27.429Z,101292.84
2022-08-25T18:32:55.336Z,101290.13
2022-08-25T18:35:26.727Z,101293.82
2022-08-25T18:38:13.474Z,101296.92
2022-08-25T18:40:41.704Z,101292.02
2022-08-25T18:43:15.733Z,101296.47
2022-08-25T18:45:48.940Z,101298.76
2022-08-25T18:48:19.538Z,101304.77
2022-08-25T18:50:50.538Z,101309.22
2022-08-25T18:53:36.705Z,101307.84
2022-08-25T18:56:06.305Z,101313.08
2022-08-25T18:58:34.375Z,101306.60
2022-08-25T19:01:05.101Z,101317.10
2022-08-25T19:03:33.102Z,101315.14
2022-08-25T19:06:01.220Z,101320.02
2022-08-25T19:08:29.652Z,101320.77
2022-08-25T19:10:57.652Z,101319.00
2022-08-25T19:13:25.375Z,101309.25
2022-08-25T19:15:53.645Z,101321.52
2022-08-25T19:18:26.221Z,101322.66
2022-08-25T19:20:59.284Z,101319.52
2022-08-25T19:23:27.194Z,101320.70
2022-08-25T19:25:54.918Z,101315.76
2022-08-25T19:28:24.013Z,101326.48
2022-08-25T19:30:52.151Z,101319.98
2022-08-25T19:33:42.661Z,101319.55
2022-08-25T19:36:09.990Z,101321.29
2022-08-25T19:38:38.488Z,101323.55
2022-08-25T19:41:10.645Z,101332.47
2022-08-25T19:43:55.151Z,101319.59
2022-08-25T19:46:32.125Z,101322.66
2022-08-25T19:49:08.688Z,101320.44
2022-08-25T19:51:39.762Z,101324.85
2022-08-25T19:54:10.356Z,101322.07
2022-08-25T19:56:43.887Z,101320.66
2022-08-25T19:59:40.518Z,101328.19
2022-08-25T20:02:18.191Z,101319.36
2022-08-25T20:04:49.994Z,101326.45
2022-08-25T20:07:22.636Z,101325.44
2022-08-25T20:09:53.337Z,101331.42
2022-08-25T20:12:22.416Z,101324.91
2022-08-25T20:14:52.332Z,101326.42
2022-08-25T20:17:23.451Z,101323.84
2022-08-25T20:19:58.157Z,101328.45
2022-08-25T20:22:32.796Z,101328.02
2022-08-25T20:25:13.385Z,101326.78
2022-08-25T20:27:47.833Z,101320.54
2022-08-25T20:30:19.973Z,101328.80
2022-08-25T20:32:47.706Z,101338.72
2022-08-25T20:35:17.580Z,101333.23
2022-08-25T20:37:47.007Z,101332.77
2022-08-25T20:40:17.448Z,101333.88
2022-08-25T20:42:48.531Z,101342.41
2022-08-25T20:45:19.449Z,101329.53
2022-08-25T20:47:47.151Z,101338.06
2022-08-25T20:50:15.039Z,101337.60
2022-08-25T20:52:43.867Z,101326.29
2022-08-25T20:55:12.198Z,101339.08
2022-08-25T20:57:40.276Z,101339.14
2022-08-25T21:00:10.619Z,101347.68
2022-08-25T21:02:38.487Z,101342.97
2022-08-25T21:05:07.196Z,101347.02
2022-08-25T21:07:36.179Z,101344.96
2022-08-25T21:10:10.520Z,101354.28
2022-08-25T21:12:39.370Z,101349.57
2022-08-25T21:15:07.844Z,101355.72
2022-08-25T21:17:35.907Z,101357.65
2022-08-25T21:20:06.593Z,101355.07
2022-08-25T21:22:41.078Z,101355.59
2022-08-25T21:25:09.574Z,101355.39
2022-08-25T21:27:37.381Z,101341.95
2022-08-25T21:30:08.184Z,101352.02
2022-08-25T21:32:35.888Z,101363.41
2022-08-25T21:35:07.702Z,101352.91
2022-08-25T21:37:35.737Z,101359.25
2022-08-25T21:40:03.732Z,101359.61
2022-08-25T21:42:35.444Z,101363.86
2022-08-25T21:45:03.239Z,101361.84
2022-08-25T21:47:31.057Z,101361.38
2022-08-25T21:49:58.907Z,101358.56
2022-08-25T21:52:26.577Z,101356.99
2022-08-25T21:54:54.300Z,101358.66
2022-08-25T21:57:24.210Z,101364.02
2022-08-25T21:59:52.640Z,101359.38
2022-08-25T22:02:22.710Z,101359.71
2022-08-25T22:04:55.232Z,101365.83
2022-08-25T22:07:24.490Z,101363.24
2022-08-25T22:09:52.923Z,101365.47
2022-08-25T22:12:20.702Z,101359.16
2022-08-25T22:14:48.369Z,101368.24
2022-08-25T22:17:16.923Z,101364.62
2022-08-25T22:19:48.651Z,101358.89
2022-08-25T22:22:21.643Z,101366.05
2022-08-25T22:24:49.628Z,101361.87
2022-08-25T22:27:18.726Z,101364.88
2022-08-25T22:29:46.460Z,101367.30
2022-08-25T22:32:14.149Z,101359.45
2022-08-25T22:34:43.727Z,101361.64
2022-08-25T22:37:11.597Z,101365.40
2022-08-25T22:39:40.280Z,101369.16
2022-08-25T22:42:08.548Z,101366.91
2022-08-25T22:44:40.007Z,101364.59
2022-08-25T22:47:08.740Z,101365.66
2022-08-25T22:49:36.755Z,101360.95
2022-08-25T22:52:06.177Z,101371.55
2022-08-25T22:54:34.277Z,101378.71
2022-08-25T22:57:06.540Z,101368.70
2022-08-25T22:59:35.227Z,101376.95
2022-08-25T23:02:03.052Z,101374.88
2022-08-25T23:04:30.958Z,101374.66
2022-08-25T23:06:58.802Z,101367.59
2022-08-25T23:09:26.518Z,101366.55
2022-08-25T23:11:54.222Z,101369.98
2022-08-25T23:14:22.318Z,101370.27
2022-08-25T23:16:51.217Z,101363.99
2022-08-25T23:19:20.037Z,101365.10
2022-08-25T23:22:07.048Z,101362.72
2022-08-25T23:24:34.848Z,101358.80
2022-08-25T23:27:04.559Z,101360.98
2022-08-25T23:29:35.427Z,101360.98
2022-08-25T23:32:04.044Z,101354.38
2022-08-25T23:34:33.757Z,101352.81
2022-08-25T23:37:01.852Z,101348.85
2022-08-25T23:39:29.673Z,101349.41
2022-08-25T23:41:58.804Z,101347.84
2022-08-25T23:44:27.884Z,101341.01
2022-08-25T23:46:55.955Z,101335.52
2022-08-25T23:49:26.067Z,101340.52
2022-08-25T23:51:54.357Z,101335.80
2022-08-25T23:54:22.583Z,101329.76
2022-08-25T23:56:58.861Z,101323.48
2022-08-25T23:59:26.838Z,101324.52
